sensor_id;sensor_type;location;lat;lon;timestamp;pressure;altitude;pressure_sealevel;temperature;humidity
75617;BME280;64200;55.426;37.758;2023-04-01T00:02:41;97855.94;;;2.84;71.64
75617;BME280;64200;55.426;37.758;2023-04-01T00:07:42;97862.03;;;2.69;72.11
75617;BME280;64200;55.426;37.758;2023-04-01T00:12:43;97854.69;;;2.75;71.92
75617;BME280;64200;55.426;37.758;2023-04-01T00:17:44;97854.09;;;2.71;72.15
75617;BME280;64200;55.426;37.758;2023-04-01T00:22:44;97851.63;;;2.73;71.89
75617;BME280;64200;55.426;37.758;2023-04-01T00:27:45;97854.56;;;2.70;72.32
75617;BME280;64200;55.426;37.758;2023-04-01T00:32:46;97854.22;;;2.68;71.88
75617;BME280;64200;55.426;37.758;2023-04-01T00:37:46;97856.22;;;2.67;72.29
75617;BME280;64200;55.426;37.758;2023-04-01T00:42:47;97852.09;;;2.72;72.42
75617;BME280;64200;55.426;37.758;2023-04-01T00:47:48;97852.72;;;2.76;72.28
75617;BME280;64200;55.426;37.758;2023-04-01T00:52:48;97845.38;;;2.73;72.49
75617;BME280;64200;55.426;37.758;2023-04-01T00:57:50;97849.19;;;2.75;72.72
75617;BME280;64200;55.426;37.758;2023-04-01T01:02:53;97865.88;;;2.81;72.51
75617;BME280;64200;55.426;37.758;2023-04-01T01:13:46;97863.41;;;2.64;71.98
75617;BME280;64200;55.426;37.758;2023-04-01T01:39:53;97854.47;;;2.33;72.73
75617;BME280;64200;55.426;37.758;2023-04-01T01:44:55;97846.47;;;2.16;72.72
75617;BME280;64200;55.426;37.758;2023-04-01T01:49:57;97859.44;;;2.16;73.17
75617;BME280;64200;55.426;37.758;2023-04-01T01:54:58;97865.28;;;2.18;72.84
75617;BME280;64200;55.426;37.758;2023-04-01T02:00:08;97861.63;;;2.21;73.66
75617;BME280;64200;55.426;37.758;2023-04-01T02:05:24;97873.81;;;2.20;73.43
75617;BME280;64200;55.426;37.758;2023-04-01T02:10:26;97870.44;;;2.16;73.90
75617;BME280;64200;55.426;37.758;2023-04-01T02:15:31;97866.06;;;2.27;74.09
75617;BME280;64200;55.426;37.758;2023-04-01T02:20:38;97877.88;;;2.37;73.37
75617;BME280;64200;55.426;37.758;2023-04-01T02:25:41;97881.41;;;2.47;73.29
75617;BME280;64200;55.426;37.758;2023-04-01T02:30:43;97881.56;;;2.43;72.92
75617;BME280;64200;55.426;37.758;2023-04-01T02:35:44;97876.31;;;2.36;73.62
75617;BME280;64200;55.426;37.758;2023-04-01T02:40:50;97867.56;;;2.19;73.61
75617;BME280;64200;55.426;37.758;2023-04-01T02:45:51;97882.81;;;2.11;73.44
75617;BME280;64200;55.426;37.758;2023-04-01T02:50:52;97877.50;;;2.26;73.76
75617;BME280;64200;55.426;37.758;2023-04-01T02:55:52;97874.38;;;2.46;74.22
75617;BME280;64200;55.426;37.758;2023-04-01T03:00:53;97874.38;;;2.46;73.23
75617;BME280;64200;55.426;37.758;2023-04-01T03:05:53;97882.47;;;2.40;73.57
75617;BME280;64200;55.426;37.758;2023-04-01T03:10:56;97887.34;;;2.36;73.96
75617;BME280;64200;55.426;37.758;2023-04-01T03:15:56;97884.41;;;2.31;73.32
75617;BME280;64200;55.426;37.758;2023-04-01T03:20:57;97890.78;;;2.18;73.32
75617;BME280;64200;55.426;37.758;2023-04-01T03:25:57;97894.25;;;2.09;74.36
75617;BME280;64200;55.426;37.758;2023-04-01T03:30:58;97894.94;;;2.23;73.84
75617;BME280;64200;55.426;37.758;2023-04-01T03:35:58;97903.72;;;2.40;73.56
75617;BME280;64200;55.426;37.758;2023-04-01T03:41:00;97911.53;;;2.51;73.79
75617;BME280;64200;55.426;37.758;2023-04-01T03:46:01;97920.88;;;2.53;73.90
75617;BME280;64200;55.426;37.758;2023-04-01T03:51:06;97927.44;;;2.46;73.63
75617;BME280;64200;55.426;37.758;2023-04-01T03:56:08;97929.25;;;2.40;73.79
75617;BME280;64200;55.426;37.758;2023-04-01T04:01:19;97946.19;;;2.39;73.59
75617;BME280;64200;55.426;37.758;2023-04-01T04:06:21;97940.38;;;2.37;73.54
75617;BME280;64200;55.426;37.758;2023-04-01T04:11:22;97949.22;;;2.32;74.06
75617;BME280;64200;55.426;37.758;2023-04-01T04:16:22;97955.94;;;2.31;73.45
75617;BME280;64200;55.426;37.758;2023-04-01T04:21:23;97959.13;;;2.29;74.53
75617;BME280;64200;55.426;37.758;2023-04-01T04:26:24;97957.00;;;2.24;74.57
75617;BME280;64200;55.426;37.758;2023-04-01T04:31:24;97969.97;;;2.23;74.16
75617;BME280;64200;55.426;37.758;2023-04-01T04:36:25;97971.50;;;2.24;74.33
75617;BME280;64200;55.426;37.758;2023-04-01T04:41:25;97974.13;;;2.28;75.00
75617;BME280;64200;55.426;37.758;2023-04-01T04:46:26;97974.63;;;2.36;74.08
75617;BME280;64200;55.426;37.758;2023-04-01T04:51:26;97983.38;;;2.43;74.69
75617;BME280;64200;55.426;37.758;2023-04-01T04:56:27;97978.38;;;2.60;73.90
75617;BME280;64200;55.426;37.758;2023-04-01T05:01:28;97995.78;;;2.89;73.80
75617;BME280;64200;55.426;37.758;2023-04-01T05:06:30;97996.09;;;3.00;73.94
75617;BME280;64200;55.426;37.758;2023-04-01T05:11:31;97998.91;;;3.19;72.80
75617;BME280;64200;55.426;37.758;2023-04-01T05:16:31;98005.03;;;3.23;72.60
75617;BME280;64200;55.426;37.758;2023-04-01T05:21:32;97998.75;;;3.13;72.66
75617;BME280;64200;55.426;37.758;2023-04-01T05:26:32;98009.31;;;3.24;72.67
75617;BME280;64200;55.426;37.758;2023-04-01T05:31:33;98006.28;;;3.22;72.59
75617;BME280;64200;55.426;37.758;2023-04-01T05:36:34;98002.88;;;3.17;72.61
75617;BME280;64200;55.426;37.758;2023-04-01T05:41:36;98011.31;;;3.23;72.83
75617;BME280;64200;55.426;37.758;2023-04-01T05:46:37;98022.97;;;3.27;72.05
75617;BME280;64200;55.426;37.758;2023-04-01T05:51:37;98030.78;;;3.38;72.26
75617;BME280;64200;55.426;37.758;2023-04-01T05:56:38;98026.19;;;3.35;72.62
75617;BME280;64200;55.426;37.758;2023-04-01T06:01:39;98040.25;;;3.19;72.30
75617;BME280;64200;55.426;37.758;2023-04-01T06:06:39;98036.97;;;3.02;72.84
75617;BME280;64200;55.426;37.758;2023-04-01T06:22:30;98047.53;;;3.81;71.61
75617;BME280;64200;55.426;37.758;2023-04-01T06:33:20;98063.88;;;4.49;71.38
75617;BME280;64200;55.426;37.758;2023-04-01T06:54:17;98081.31;;;5.41;69.70
75617;BME280;64200;55.426;37.758;2023-04-01T06:59:25;98089.63;;;5.89;68.33
75617;BME280;64200;55.426;37.758;2023-04-01T07:04:32;98096.38;;;6.66;67.52
75617;BME280;64200;55.426;37.758;2023-04-01T07:09:41;98090.84;;;7.32;66.24
75617;BME280;64200;55.426;37.758;2023-04-01T07:14:44;98093.06;;;7.13;61.53
75617;BME280;64200;55.426;37.758;2023-04-01T07:20:03;98087.09;;;7.35;62.81
75617;BME280;64200;55.426;37.758;2023-04-01T07:30:15;98104.91;;;7.84;62.48
75617;BME280;64200;55.426;37.758;2023-04-01T07:45:53;98101.63;;;10.58;60.24
75617;BME280;64200;55.426;37.758;2023-04-01T07:51:03;98119.06;;;11.89;56.19
75617;BME280;64200;55.426;37.758;2023-04-01T07:56:11;98125.75;;;12.80;51.05
75617;BME280;64200;55.426;37.758;2023-04-01T08:01:18;98137.69;;;12.39;50.39
75617;BME280;64200;55.426;37.758;2023-04-01T08:22:11;98164.16;;;14.26;42.39
75617;BME280;64200;55.426;37.758;2023-04-01T08:27:23;98153.97;;;14.86;43.60
75617;BME280;64200;55.426;37.758;2023-04-01T08:32:34;98160.81;;;13.59;43.31
75617;BME280;64200;55.426;37.758;2023-04-01T08:37:39;98154.31;;;12.68;45.18
75617;BME280;64200;55.426;37.758;2023-04-01T08:53:37;98181.69;;;19.55;39.08
75617;BME280;64200;55.426;37.758;2023-04-01T09:31:18;98202.22;;;23.10;28.36
75617;BME280;64200;55.426;37.758;2023-04-01T09:36:38;98215.19;;;21.08;25.74
75617;BME280;64200;55.426;37.758;2023-04-01T09:42:10;98219.06;;;20.08;30.63
75617;BME280;64200;55.426;37.758;2023-04-01T09:52:31;98223.84;;;24.44;27.58
75617;BME280;64200;55.426;37.758;2023-04-01T10:29:49;98248.41;;;28.23;17.91
75617;BME280;64200;55.426;37.758;2023-04-01T10:51:17;98256.09;;;29.44;17.00
75617;BME280;64200;55.426;37.758;2023-04-01T11:24:02;98259.94;;;21.57;20.65
75617;BME280;64200;55.426;37.758;2023-04-01T11:34:50;98251.28;;;20.51;21.90
75617;BME280;64200;55.426;37.758;2023-04-01T11:50:49;98250.53;;;14.77;30.67
75617;BME280;64200;55.426;37.758;2023-04-01T11:56:09;98267.28;;;14.14;31.65
75617;BME280;64200;55.426;37.758;2023-04-01T12:06:33;98266.88;;;11.58;36.37
75617;BME280;64200;55.426;37.758;2023-04-01T12:12:22;98266.09;;;11.41;37.93
75617;BME280;64200;55.426;37.758;2023-04-01T12:43:37;98287.34;;;11.10;38.64
75617;BME280;64200;55.426;37.758;2023-04-01T12:54:29;98276.97;;;10.07;42.75
75617;BME280;64200;55.426;37.758;2023-04-01T13:10:42;98286.34;;;10.04;44.40
75617;BME280;64200;55.426;37.758;2023-04-01T13:15:52;98290.56;;;9.94;45.14
75617;BME280;64200;55.426;37.758;2023-04-01T13:21:13;98295.09;;;9.91;44.90
75617;BME280;64200;55.426;37.758;2023-04-01T13:42:26;98304.38;;;9.24;48.95
75617;BME280;64200;55.426;37.758;2023-04-01T14:04:30;98316.75;;;9.23;50.53
75617;BME280;64200;55.426;37.758;2023-04-01T14:47:28;98350.75;;;8.51;54.15
75617;BME280;64200;55.426;37.758;2023-04-01T14:52:33;98348.94;;;8.48;55.67
75617;BME280;64200;55.426;37.758;2023-04-01T14:57:34;98367.44;;;8.36;55.51
75617;BME280;64200;55.426;37.758;2023-04-01T15:03:08;98365.91;;;8.35;56.48
75617;BME280;64200;55.426;37.758;2023-04-01T15:08:38;98370.91;;;8.46;55.37
75617;BME280;64200;55.426;37.758;2023-04-01T15:19:38;98378.22;;;8.13;57.76
75617;BME280;64200;55.426;37.758;2023-04-01T15:41:23;98395.63;;;7.84;59.82
75617;BME280;64200;55.426;37.758;2023-04-01T15:52:02;98416.50;;;7.94;59.59
75617;BME280;64200;55.426;37.758;2023-04-01T16:18:23;98455.28;;;7.88;60.52
75617;BME280;64200;55.426;37.758;2023-04-01T16:23:35;98461.56;;;7.74;60.85
75617;BME280;64200;55.426;37.758;2023-04-01T16:28:42;98465.50;;;7.67;60.41
75617;BME280;64200;55.426;37.758;2023-04-01T16:33:56;98479.06;;;7.65;62.00
75617;BME280;64200;55.426;37.758;2023-04-01T16:44:25;98481.16;;;7.55;62.61
75617;BME280;64200;55.426;37.758;2023-04-01T16:49:36;98477.28;;;7.38;62.40
75617;BME280;64200;55.426;37.758;2023-04-01T16:59:55;98493.03;;;7.32;63.89
75617;BME280;64200;55.426;37.758;2023-04-01T17:05:09;98492.81;;;7.45;64.44
75617;BME280;64200;55.426;37.758;2023-04-01T17:15:31;98497.75;;;7.16;66.22
75617;BME280;64200;55.426;37.758;2023-04-01T17:20:56;98500.44;;;7.01;65.92
75617;BME280;64200;55.426;37.758;2023-04-01T17:48:03;98506.84;;;6.83;67.66
75617;BME280;64200;55.426;37.758;2023-04-01T17:53:31;98521.44;;;6.93;67.45
75617;BME280;64200;55.426;37.758;2023-04-01T17:58:46;98523.16;;;6.91;67.82
75617;BME280;64200;55.426;37.758;2023-04-01T18:19:58;98549.31;;;6.90;67.44
75617;BME280;64200;55.426;37.758;2023-04-01T18:25:19;98542.28;;;6.79;69.01
75617;BME280;64200;55.426;37.758;2023-04-01T18:30:28;98547.81;;;6.89;68.27
75617;BME280;64200;55.426;37.758;2023-04-01T18:46:00;98566.94;;;6.77;68.76
75617;BME280;64200;55.426;37.758;2023-04-01T18:51:44;98556.03;;;6.74;68.92
75617;BME280;64200;55.426;37.758;2023-04-01T18:56:43;98570.44;;;6.87;68.80
75617;BME280;64200;55.426;37.758;2023-04-01T19:13:02;98567.56;;;6.63;69.98
75617;BME280;64200;55.426;37.758;2023-04-01T19:34:09;98570.75;;;6.89;69.35
75617;BME280;64200;55.426;37.758;2023-04-01T20:00:53;98595.78;;;7.04;68.96
75617;BME280;64200;55.426;37.758;2023-04-01T20:17:07;98593.06;;;6.95;69.24
75617;BME280;64200;55.426;37.758;2023-04-01T20:49:59;98610.41;;;7.14;69.36
75617;BME280;64200;55.426;37.758;2023-04-01T21:00:27;98617.91;;;6.80;70.67
75617;BME280;64200;55.426;37.758;2023-04-01T21:27:05;98626.81;;;6.84;71.64
75617;BME280;64200;55.426;37.758;2023-04-01T21:37:44;98655.47;;;6.62;73.06
75617;BME280;64200;55.426;37.758;2023-04-01T22:04:47;98641.94;;;6.55;74.76
75617;BME280;64200;55.426;37.758;2023-04-01T22:21:10;98648.22;;;6.83;74.10
75617;BME280;64200;55.426;37.758;2023-04-01T22:52:45;98664.22;;;6.79;75.09
75617;BME280;64200;55.426;37.758;2023-04-01T22:58:01;98662.72;;;6.78;75.30
75617;BME280;64200;55.426;37.758;2023-04-01T23:03:12;98660.66;;;6.88;74.75
75617;BME280;64200;55.426;37.758;2023-04-01T23:19:26;98662.50;;;6.91;75.08
75617;BME280;64200;55.426;37.758;2023-04-01T23:24:33;98666.97;;;6.98;75.11
75617;BME280;64200;55.426;37.758;2023-04-01T23:29:37;98670.69;;;6.95;75.54
75617;BME280;64200;55.426;37.758;2023-04-01T23:34:49;98669.09;;;7.12;74.68
75617;BME280;64200;55.426;37.758;2023-04-01T23:39:52;98669.22;;;7.18;74.55
75617;BME280;64200;55.426;37.758;2023-04-01T23:44:56;98677.91;;;7.01;75.14
75617;BME280;64200;55.426;37.758;2023-04-01T23:50:00;98676.84;;;6.99;75.37
75617;BME280;64200;55.426;37.758;2023-04-01T23:55:30;98681.28;;;7.06;75.07
